Time;durP1;ratioP1;P1;durP2;ratioP2;P2;SDS_P1;SDS_P2;PMS_P1;PMS_P2;Temp;Humidity;BMP_temperature;BMP_pressure;BME280_temperature;BME280_humidity;BME280_pressure;Samples;Min_cycle;Max_cycle;Signal;HPM_P1;HPM_P2
2022/08/05 03:02:19;;;;;;;8.07;4.25;;;17.70;99.90;;;;;;5166890;23;20054;-77
2022/08/05 03:04:46;;;;;;;9.55;4.70;;;17.70;99.90;;;;;;4996537;28;20045;-78
2022/08/05 03:07:13;;;;;;;9.57;4.32;;;17.70;99.90;;;;;;4996099;28;20114;-77
2022/08/05 03:09:41;;;;;;;13.20;5.93;;;17.70;99.90;;;;;;4995395;28;20042;-77
2022/08/05 03:12:07;;;;;;;10.80;4.72;;;17.70;99.90;;;;;;4994978;28;20058;-78
2022/08/05 03:14:33;;;;;;;8.02;4.60;;;17.70;99.90;;;;;;4995281;28;20502;-79
2022/08/05 03:16:59;;;;;;;8.70;5.18;;;17.60;99.90;;;;;;4994920;28;20046;-78
2022/08/05 03:19:25;;;;;;;13.98;6.18;;;17.60;99.90;;;;;;4995029;28;20049;-80
2022/08/05 03:21:51;;;;;;;7.97;4.80;;;17.60;99.90;;;;;;4995522;28;20042;-79
2022/08/05 03:24:19;;;;;;;9.35;5.22;;;17.60;99.90;;;;;;4994529;28;20045;-78
2022/08/05 03:26:45;;;;;;;8.82;4.78;;;17.60;99.90;;;;;;4995689;28;20121;-78
2022/08/05 03:29:10;;;;;;;8.25;5.15;;;17.60;99.90;;;;;;4995138;28;20046;-79
2022/08/05 03:31:36;;;;;;;11.02;5.68;;;17.70;99.90;;;;;;4978150;28;20043;-77
2022/08/05 03:34:03;;;;;;;8.93;4.38;;;17.70;99.90;;;;;;4995603;28;20334;-79
2022/08/05 03:36:30;;;;;;;8.82;4.82;;;17.60;99.90;;;;;;4994416;28;20046;-78
2022/08/05 03:38:56;;;;;;;11.80;5.28;;;17.60;99.90;;;;;;4994105;28;20049;-78
2022/08/05 03:41:22;;;;;;;11.15;5.70;;;17.70;99.90;;;;;;4993923;28;20050;-77
2022/08/05 03:43:47;;;;;;;11.52;5.65;;;17.70;99.90;;;;;;4994033;28;20045;-79
2022/08/05 03:46:13;;;;;;;9.68;5.28;;;17.60;99.90;;;;;;4978068;28;20069;-79
2022/08/05 03:48:39;;;;;;;14.15;6.30;;;17.60;99.90;;;;;;4989075;28;20046;-77
2022/08/05 03:51:19;;;;;;;10.38;5.95;;;17.60;99.90;;;;;;4985543;28;20038;-78
2022/08/05 03:53:57;;;;;;;7.57;4.45;;;17.60;99.90;;;;;;4995658;28;20048;-79
2022/08/05 03:56:40;;;;;;;9.50;5.82;;;17.60;99.90;;;;;;4995020;28;20042;-77
2022/08/05 03:59:09;;;;;;;9.98;6.22;;;17.60;99.90;;;;;;4994218;28;20486;-78
2022/08/05 04:01:38;;;;;;;9.07;5.95;;;17.60;99.90;;;;;;4994843;28;20042;-79
2022/08/05 04:04:06;;;;;;;9.15;5.68;;;17.50;99.90;;;;;;4993657;28;20524;-77
2022/08/05 04:06:33;;;;;;;8.35;6.05;;;17.50;99.90;;;;;;4993543;28;20125;-77
2022/08/05 04:09:00;;;;;;;7.50;5.28;;;17.40;99.90;;;;;;4993733;28;20074;-80
2022/08/05 04:11:26;;;;;;;9.98;5.85;;;17.50;99.90;;;;;;4995077;28;20046;-79
2022/08/05 04:13:53;;;;;;;11.82;6.20;;;17.40;99.90;;;;;;4993797;28;20390;-77
2022/08/05 04:16:19;;;;;;;10.43;5.40;;;17.40;99.90;;;;;;4994732;28;20105;-78
2022/08/05 04:18:45;;;;;;;9.48;6.25;;;17.40;99.90;;;;;;4993347;28;20046;-77
2022/08/05 04:21:11;;;;;;;12.93;6.63;;;17.40;99.90;;;;;;4977194;28;20403;-78
2022/08/05 04:23:38;;;;;;;12.13;5.38;;;17.40;99.90;;;;;;4993258;28;20046;-79
2022/08/05 04:26:04;;;;;;;13.30;6.45;;;17.40;99.90;;;;;;4993041;28;20050;-78
2022/08/05 04:28:30;;;;;;;12.77;5.90;;;17.40;99.90;;;;;;4994668;28;20038;-77
2022/08/05 04:30:56;;;;;;;12.82;5.65;;;17.40;99.90;;;;;;4993171;28;20043;-77
2022/08/05 04:33:21;;;;;;;11.50;5.63;;;17.40;99.90;;;;;;4992580;28;20394;-78
2022/08/05 04:35:47;;;;;;;10.13;5.97;;;17.40;99.90;;;;;;4993053;28;20042;-77
2022/08/05 04:38:13;;;;;;;11.57;6.10;;;17.40;99.90;;;;;;4992855;28;20159;-78
2022/08/05 04:40:40;;;;;;;11.45;5.53;;;17.40;99.90;;;;;;4994195;28;20504;-78
2022/08/05 04:43:06;;;;;;;11.95;5.50;;;17.40;99.90;;;;;;4994361;28;20046;-78
2022/08/05 04:45:32;;;;;;;9.93;5.32;;;17.40;99.90;;;;;;4992961;28;20371;-79
2022/08/05 04:48:05;;;;;;;7.13;5.30;;;17.40;99.90;;;;;;4994372;28;20118;-77
2022/08/05 04:50:37;;;;;;;9.55;5.50;;;17.40;99.90;;;;;;4992946;28;20045;-78
2022/08/05 04:53:02;;;;;;;11.90;6.53;;;17.40;99.90;;;;;;4993669;28;20358;-77
2022/08/05 04:55:28;;;;;;;8.55;5.28;;;17.40;99.90;;;;;;4992976;28;20049;-77
2022/08/05 04:57:53;;;;;;;11.70;6.00;;;17.30;99.90;;;;;;4993187;28;20042;-77
2022/08/05 05:00:19;;;;;;;9.88;5.88;;;17.30;99.90;;;;;;4993858;28;20046;-78
2022/08/05 05:02:45;;;;;;;9.27;6.00;;;17.30;99.90;;;;;;4992829;28;20062;-78
2022/08/05 05:05:10;;;;;;;9.43;5.85;;;17.30;99.90;;;;;;4992605;28;20077;-77
2022/08/05 05:07:36;;;;;;;9.43;6.10;;;17.30;99.90;;;;;;4992772;28;20042;-76
2022/08/05 05:10:04;;;;;;;8.95;5.88;;;17.30;99.90;;;;;;4992662;28;20034;-79
2022/08/05 05:12:30;;;;;;;9.85;6.00;;;17.30;99.90;;;;;;4976733;28;20488;-80
2022/08/05 05:14:56;;;;;;;9.95;5.30;;;17.30;99.90;;;;;;4992821;28;20118;-78
2022/08/05 05:17:22;;;;;;;11.80;6.78;;;17.30;99.90;;;;;;4992533;28;20486;-78
2022/08/05 05:19:47;;;;;;;10.10;6.28;;;17.30;99.90;;;;;;4976390;28;20050;-78
2022/08/05 05:22:13;;;;;;;11.75;6.45;;;17.20;99.90;;;;;;4992447;28;20042;-78
2022/08/05 05:24:39;;;;;;;8.02;5.97;;;17.20;99.90;;;;;;4992579;28;20034;-77
2022/08/05 05:27:04;;;;;;;8.60;6.18;;;17.20;99.90;;;;;;4992440;28;20122;-78
2022/08/05 05:29:30;;;;;;;12.82;6.63;;;17.20;99.90;;;;;;4992429;28;20482;-77
2022/08/05 05:31:56;;;;;;;14.27;6.90;;;17.20;99.90;;;;;;4993913;28;20066;-77
2022/08/05 05:34:22;;;;;;;12.27;6.88;;;17.10;99.90;;;;;;4993637;28;20043;-78
2022/08/05 05:36:47;;;;;;;9.90;6.03;;;17.10;99.90;;;;;;4992380;28;20449;-76
2022/08/05 05:39:13;;;;;;;10.45;6.72;;;17.10;99.90;;;;;;4992361;28;20078;-78
2022/08/05 05:41:39;;;;;;;10.98;6.25;;;17.10;99.90;;;;;;4992222;28;20046;-78
2022/08/05 05:44:04;;;;;;;11.27;6.70;;;17.10;99.90;;;;;;4992408;28;20053;-79
2022/08/05 05:46:30;;;;;;;12.02;6.40;;;17.10;99.90;;;;;;4995810;28;20121;-77
2022/08/05 05:48:56;;;;;;;12.00;6.30;;;17.10;99.90;;;;;;4997497;28;20038;-78
2022/08/05 05:51:23;;;;;;;12.32;7.25;;;17.10;99.90;;;;;;4997490;28;20496;-76
2022/08/05 05:53:50;;;;;;;11.82;7.20;;;17.00;99.90;;;;;;4995963;28;20045;-77
2022/08/05 05:56:16;;;;;;;10.63;6.97;;;17.00;99.90;;;;;;4997705;28;20084;-79
2022/08/05 05:58:41;;;;;;;9.48;6.35;;;17.00;99.90;;;;;;4997045;28;20074;-78
2022/08/05 06:01:07;;;;;;;9.38;8.05;;;17.00;99.90;;;;;;4996782;28;20038;-78
2022/08/05 06:03:32;;;;;;;10.68;6.40;;;17.00;99.90;;;;;;4997050;28;20038;-76
2022/08/05 06:05:58;;;;;;;12.20;6.85;;;17.00;99.90;;;;;;4995674;28;20089;-79
2022/08/05 06:08:24;;;;;;;7.70;6.03;;;17.00;99.90;;;;;;4996910;28;20042;-75
2022/08/05 06:10:49;;;;;;;12.00;6.00;;;17.00;99.90;;;;;;4995730;28;20043;-75
2022/08/05 06:13:15;;;;;;;9.07;5.40;;;17.10;99.90;;;;;;4997139;28;20038;-75
2022/08/05 06:15:40;;;;;;;12.15;5.30;;;17.10;99.90;;;;;;4996098;28;20049;-78
2022/08/05 06:18:06;;;;;;;8.60;4.72;;;17.10;99.90;;;;;;4997560;28;20038;-77
2022/08/05 06:20:32;;;;;;;6.85;5.03;;;17.20;99.90;;;;;;4996623;28;20588;-78
2022/08/05 06:22:58;;;;;;;8.10;4.93;;;17.30;99.90;;;;;;4979305;28;20046;-78
2022/08/05 06:25:24;;;;;;;10.18;5.15;;;17.30;99.90;;;;;;4995311;28;20055;-76
2022/08/05 06:27:49;;;;;;;6.55;4.35;;;17.30;99.90;;;;;;4995170;28;20042;-78
2022/08/05 06:30:15;;;;;;;7.10;4.88;;;17.40;99.90;;;;;;4995467;28;20050;-78
2022/08/05 06:32:42;;;;;;;7.63;4.65;;;17.40;99.90;;;;;;4978967;28;20493;-77
2022/08/05 06:35:08;;;;;;;7.18;4.35;;;17.40;99.90;;;;;;4995411;28;20508;-77
2022/08/05 06:37:33;;;;;;;6.63;4.18;;;17.50;99.90;;;;;;4995361;28;20039;-77
2022/08/05 06:39:59;;;;;;;5.80;3.70;;;17.60;99.90;;;;;;4996600;28;20034;-79
2022/08/05 06:42:25;;;;;;;6.55;3.38;;;17.60;99.90;;;;;;4994946;28;20050;-79
2022/08/05 06:44:50;;;;;;;5.95;3.40;;;17.70;99.90;;;;;;4994993;28;20051;-77
2022/08/05 06:47:16;;;;;;;5.75;3.28;;;17.80;99.90;;;;;;4996241;28;20050;-77
2022/08/05 06:49:42;;;;;;;5.85;3.33;;;17.80;99.90;;;;;;4994923;28;20035;-78
2022/08/05 06:52:07;;;;;;;7.05;2.97;;;18.00;99.90;;;;;;4996356;28;20042;-77
2022/08/05 06:54:33;;;;;;;5.25;2.85;;;18.00;99.90;;;;;;4995138;28;20038;-78
2022/08/05 06:56:58;;;;;;;3.65;1.92;;;18.10;99.90;;;;;;4978119;28;20078;-78
2022/08/05 06:59:24;;;;;;;5.03;2.40;;;18.10;99.90;;;;;;4995182;28;20129;-77
2022/08/05 07:01:50;;;;;;;4.45;2.00;;;18.10;99.90;;;;;;4995874;28;20482;-78
2022/08/05 07:04:16;;;;;;;4.90;2.55;;;18.10;99.90;;;;;;4996681;28;20046;-76
2022/08/05 07:06:41;;;;;;;5.65;2.20;;;18.10;99.90;;;;;;4994717;28;20044;-80
2022/08/05 07:09:07;;;;;;;3.70;2.25;;;18.10;99.90;;;;;;4996147;28;20433;-78
2022/08/05 07:11:33;;;;;;;4.53;2.08;;;18.10;99.90;;;;;;4995938;28;20030;-78
2022/08/05 07:16:48;;;;;;;6.20;1.90;;;18.10;99.90;;;;;;4995266;28;20397;-79
2022/08/05 07:19:16;;;;;;;3.92;1.70;;;18.10;99.90;;;;;;4995799;28;20046;-78
2022/08/05 07:21:42;;;;;;;3.83;1.55;;;18.10;99.90;;;;;;4994587;28;20390;-76
2022/08/05 07:24:08;;;;;;;3.65;1.67;;;18.10;99.90;;;;;;4994328;28;20397;-77
2022/08/05 07:26:34;;;;;;;3.58;1.70;;;18.10;99.90;;;;;;4994189;28;20038;-76
2022/08/05 07:28:59;;;;;;;3.88;1.77;;;18.10;99.90;;;;;;4994258;28;20035;-77
2022/08/05 07:31:25;;;;;;;4.32;1.63;;;18.10;99.90;;;;;;4994554;28;20042;-78
2022/08/05 07:33:50;;;;;;;6.43;1.85;;;18.20;99.90;;;;;;4995433;28;20458;-76
2022/08/05 07:36:16;;;;;;;3.70;1.98;;;18.30;99.90;;;;;;4994168;28;20058;-75
2022/08/05 07:38:42;;;;;;;4.20;1.85;;;18.40;99.90;;;;;;4993943;28;20042;-78
2022/08/05 07:41:09;;;;;;;5.60;2.03;;;18.50;99.90;;;;;;4993985;28;20097;-79
2022/08/05 07:43:35;;;;;;;3.42;1.60;;;18.50;99.90;;;;;;4995200;28;20065;-78
2022/08/05 07:46:00;;;;;;;5.88;2.20;;;18.50;99.90;;;;;;4995091;28;20038;-78
2022/08/05 07:48:26;;;;;;;4.43;1.42;;;18.50;99.90;;;;;;4993745;28;20042;-77
2022/08/05 07:50:52;;;;;;;3.63;1.60;;;18.60;99.90;;;;;;4995039;28;20031;-81
2022/08/05 07:53:18;;;;;;;5.25;1.40;;;18.70;99.90;;;;;;4994116;28;20046;-81
2022/08/05 07:55:43;;;;;;;4.88;1.30;;;18.80;99.90;;;;;;4994462;28;20042;-81
2022/08/05 07:58:09;;;;;;;2.72;1.38;;;18.90;99.90;;;;;;4994197;28;20042;-79
2022/08/05 08:00:35;;;;;;;4.43;1.25;;;19.00;99.90;;;;;;4993530;28;20082;-77
2022/08/05 08:03:01;;;;;;;5.38;1.20;;;19.00;99.90;;;;;;4994975;28;20394;-78
2022/08/05 08:05:26;;;;;;;4.03;1.10;;;19.00;99.90;;;;;;4993470;28;20124;-77
2022/08/05 08:07:55;;;;;;;5.05;1.27;;;18.90;99.90;;;;;;4993079;28;20125;-76
2022/08/05 08:10:21;;;;;;;3.22;1.20;;;18.90;99.90;;;;;;4993230;28;20038;-78
2022/08/05 08:12:48;;;;;;;2.08;1.00;;;19.00;99.90;;;;;;4995046;28;20038;-76
2022/08/05 08:15:14;;;;;;;2.45;0.82;;;19.10;99.90;;;;;;4994752;28;20085;-75
2022/08/05 08:17:40;;;;;;;3.05;0.80;;;19.20;99.90;;;;;;4994356;28;20146;-78
2022/08/05 08:20:06;;;;;;;2.53;0.90;;;19.20;99.90;;;;;;4993686;28;20500;-77
2022/08/05 08:22:32;;;;;;;4.30;1.10;;;19.20;99.90;;;;;;4993032;28;20540;-79
2022/08/05 08:24:58;;;;;;;2.85;1.05;;;19.30;99.90;;;;;;4994138;28;20367;-76
2022/08/05 08:27:23;;;;;;;3.85;1.15;;;19.40;99.90;;;;;;4994649;28;20038;-77
2022/08/05 08:29:49;;;;;;;3.42;1.52;;;19.40;99.90;;;;;;4993536;28;20473;-78
2022/08/05 08:32:15;;;;;;;7.55;1.70;;;19.30;99.90;;;;;;4993022;28;20645;-81
2022/08/05 08:34:41;;;;;;;4.75;1.00;;;19.20;99.90;;;;;;4993547;28;20038;-79
2022/08/05 08:37:06;;;;;;;3.70;1.20;;;19.20;99.90;;;;;;4993133;28;20105;-79
2022/08/05 08:39:33;;;;;;;2.58;0.93;;;19.30;99.90;;;;;;4993259;28;20073;-78
2022/08/05 08:42:00;;;;;;;3.65;1.00;;;19.40;99.90;;;;;;4993217;28;20049;-76
2022/08/05 08:44:29;;;;;;;2.33;0.75;;;19.60;99.90;;;;;;4994168;28;20093;-77
2022/08/05 08:46:55;;;;;;;3.55;0.90;;;19.60;99.90;;;;;;4992817;28;20054;-76
2022/08/05 08:49:23;;;;;;;4.20;0.90;;;19.60;99.90;;;;;;4993073;28;20046;-78
2022/08/05 08:51:57;;;;;;;2.97;1.25;;;19.70;99.90;;;;;;4992937;28;20074;-78
2022/08/05 08:54:25;;;;;;;3.70;0.90;;;19.80;99.90;;;;;;4992807;28;20050;-76
2022/08/05 08:56:50;;;;;;;5.13;0.77;;;19.90;99.90;;;;;;4993094;28;20100;-77
2022/08/05 08:59:19;;;;;;;5.20;1.13;;;19.90;99.90;;;;;;4994631;28;20393;-79
2022/08/05 09:01:46;;;;;;;3.15;0.90;;;19.90;99.90;;;;;;4994009;28;20177;-77
2022/08/05 09:04:12;;;;;;;3.97;1.10;;;20.00;99.90;;;;;;4992973;28;20085;-77
2022/08/05 09:06:38;;;;;;;5.30;1.02;;;20.10;99.90;;;;;;4993926;28;20505;-78
2022/08/05 09:09:04;;;;;;;3.75;0.88;;;20.00;99.90;;;;;;4994146;28;20042;-76
2022/08/05 09:11:32;;;;;;;2.80;0.70;;;20.10;99.90;;;;;;4987597;28;20071;-78
2022/08/05 09:13:59;;;;;;;3.13;0.70;;;20.10;99.90;;;;;;4984114;28;20546;-78
2022/08/05 09:16:26;;;;;;;6.57;1.17;;;20.20;99.90;;;;;;4992676;28;20073;-78
2022/08/05 09:18:51;;;;;;;3.25;0.60;;;20.20;99.90;;;;;;4992776;28;20104;-76
2022/08/05 09:21:18;;;;;;;3.33;0.70;;;20.30;99.90;;;;;;4995931;28;20050;-79
2022/08/05 09:23:45;;;;;;;2.38;0.70;;;20.40;99.90;;;;;;4980301;28;20050;-76
2022/08/05 09:26:18;;;;;;;5.03;0.70;;;20.50;99.90;;;;;;4998619;28;20076;-76
2022/08/05 09:28:46;;;;;;;4.07;0.75;;;20.60;99.90;;;;;;4998156;28;20042;-80
2022/08/05 09:31:14;;;;;;;1.92;0.68;;;20.70;99.90;;;;;;4997871;28;20117;-78
2022/08/05 09:33:51;;;;;;;3.05;0.50;;;20.90;99.90;;;;;;4997393;28;20034;-77
2022/08/05 09:36:17;;;;;;;3.13;0.70;;;20.90;99.90;;;;;;4979946;28;20046;-78
2022/08/05 09:39:00;;;;;;;3.05;0.77;;;20.80;99.90;;;;;;4997483;28;20074;-77
2022/08/05 09:41:26;;;;;;;2.42;0.60;;;20.90;99.90;;;;;;4996009;28;20051;-77
2022/08/05 09:43:52;;;;;;;2.40;0.50;;;21.00;99.90;;;;;;4997220;28;20038;-76
2022/08/05 09:46:29;;;;;;;3.17;0.93;;;21.10;99.90;;;;;;4995996;28;20046;-77
2022/08/05 09:48:56;;;;;;;2.88;0.50;;;21.10;99.90;;;;;;4997219;28;20478;-78
2022/08/05 09:51:33;;;;;;;2.40;0.50;;;21.20;99.90;;;;;;4980055;28;20077;-77
2022/08/05 09:54:00;;;;;;;1.98;0.52;;;21.20;99.90;;;;;;4996001;28;20100;-77
2022/08/05 09:56:34;;;;;;;5.95;0.50;;;21.20;99.90;;;;;;4997715;28;20551;-77
2022/08/05 09:59:02;;;;;;;3.50;0.55;;;21.30;99.90;;;;;;4995879;28;20497;-78
2022/08/05 10:01:32;;;;;;;2.03;0.50;;;21.30;99.90;;;;;;4997097;28;20126;-78
2022/08/05 10:04:02;;;;;;;1.27;0.40;;;21.40;99.90;;;;;;4995996;28;20493;-77
2022/08/05 10:06:28;;;;;;;3.13;0.75;;;21.50;99.90;;;;;;4995879;28;20100;-78
2022/08/05 10:08:54;;;;;;;2.72;0.45;;;21.40;97.20;;;;;;4996938;28;20034;-77
2022/08/05 10:11:20;;;;;;;2.03;0.47;;;21.30;97.10;;;;;;4995558;28;20046;-77
2022/08/05 10:13:46;;;;;;;0.85;0.30;;;21.40;97.90;;;;;;4995734;28;20046;-78
2022/08/05 10:16:35;;;;;;;2.20;0.30;;;21.50;97.70;;;;;;4995554;28;20042;-78
2022/08/05 10:19:01;;;;;;;2.42;0.20;;;21.50;93.20;;;;;;4995699;28;20080;-78
2022/08/05 10:21:27;;;;;;;4.68;0.47;;;21.50;93.10;;;;;;4995797;28;20539;-78
2022/08/05 10:23:54;;;;;;;2.53;0.65;;;21.60;92.80;;;;;;4995733;28;20124;-78
2022/08/05 10:26:20;;;;;;;1.92;0.50;;;21.60;91.90;;;;;;4995436;28;20077;-78
2022/08/05 10:28:46;;;;;;;3.70;0.55;;;21.60;92.30;;;;;;4995362;28;20442;-79
2022/08/05 10:31:14;;;;;;;1.48;0.35;;;21.60;91.50;;;;;;4995730;28;20378;-77
2022/08/05 10:33:41;;;;;;;1.40;0.40;;;21.40;90.00;;;;;;4996530;28;20042;-77
2022/08/05 10:36:07;;;;;;;0.70;0.30;;;21.40;90.30;;;;;;4997066;28;20050;-78
2022/08/05 10:38:35;;;;;;;1.35;0.30;;;21.60;87.90;;;;;;4997302;28;20042;-77
2022/08/05 10:41:25;;;;;;;1.42;0.20;;;21.80;85.10;;;;;;4996861;28;20092;-79
2022/08/05 10:44:01;;;;;;;0.52;0.30;;;21.90;84.00;;;;;;4996658;28;20050;-77
2022/08/05 10:46:46;;;;;;;0.80;0.32;;;22.10;84.40;;;;;;4995066;28;20060;-78
2022/08/05 10:49:12;;;;;;;2.10;0.32;;;22.10;77.90;;;;;;4996698;28;20390;-79
2022/08/05 10:51:46;;;;;;;1.55;0.50;;;22.40;80.80;;;;;;4996507;28;20034;-76
2022/08/05 10:54:14;;;;;;;4.35;0.43;;;22.50;77.60;;;;;;4978875;28;20559;-78
2022/08/05 10:56:50;;;;;;;0.52;0.20;;;22.50;80.10;;;;;;4995034;28;20397;-79
2022/08/05 10:59:28;;;;;;;2.45;0.40;;;22.60;81.80;;;;;;4978582;28;20054;-78
2022/08/05 11:02:09;;;;;;;4.00;0.40;;;22.60;82.90;;;;;;4996004;28;20437;-79
2022/08/05 11:04:46;;;;;;;1.27;0.38;;;22.50;80.20;;;;;;4996084;28;20038;-76
2022/08/05 11:07:17;;;;;;;2.95;0.40;;;22.60;83.40;;;;;;4996084;28;20039;-78
2022/08/05 11:09:53;;;;;;;1.90;0.30;;;22.70;84.10;;;;;;4994640;28;20165;-80
2022/08/05 11:12:35;;;;;;;1.42;0.40;;;22.70;85.40;;;;;;4996682;28;20030;-77
2022/08/05 11:15:06;;;;;;;1.27;0.40;;;22.60;83.60;;;;;;4995487;28;20050;-79
2022/08/05 11:17:36;;;;;;;1.45;0.20;;;22.30;85.30;;;;;;4996259;28;20034;-77
2022/08/05 11:20:04;;;;;;;2.75;0.45;;;22.20;86.30;;;;;;4996289;28;20030;-79
2022/08/05 11:22:42;;;;;;;1.30;0.40;;;22.30;88.70;;;;;;4994297;28;20433;-76
2022/08/05 11:25:31;;;;;;;2.15;0.40;;;21.90;83.40;;;;;;4992784;28;20052;-75
2022/08/05 11:28:16;;;;;;;1.55;0.40;;;21.60;86.90;;;;;;4981447;28;20066;-79
2022/08/05 11:30:54;;;;;;;;;;;21.60;90.50;;;;;;4994533;28;20050;-77
2022/08/05 11:33:27;;;;;;;1.85;0.40;;;21.50;91.90;;;;;;4983031;28;19941;-77
2022/08/05 11:35:57;;;;;;;2.90;0.30;;;21.40;92.00;;;;;;4974682;28;20521;-79
2022/08/05 11:38:37;;;;;;;3.58;0.40;;;21.50;92.60;;;;;;4976048;28;20386;-77
2022/08/05 11:41:05;;;;;;;3.53;0.40;;;21.40;91.90;;;;;;4974818;28;20042;-81
2022/08/05 11:43:32;;;;;;;3.08;0.93;;;21.40;93.20;;;;;;4974592;28;20042;-77
2022/08/05 11:45:58;;;;;;;2.33;0.85;;;21.40;93.20;;;;;;4974500;28;20046;-76
2022/08/05 11:48:25;;;;;;;1.63;0.45;;;21.30;92.00;;;;;;4974844;28;20086;-78
2022/08/05 11:50:52;;;;;;;3.15;0.40;;;21.30;91.80;;;;;;4975828;28;20093;-77
2022/08/05 11:53:18;;;;;;;1.67;0.32;;;21.20;92.30;;;;;;4974595;28;20054;-77
2022/08/05 11:55:55;;;;;;;2.40;0.30;;;21.20;92.20;;;;;;4974314;28;20051;-77
2022/08/05 11:58:33;;;;;;;1.33;0.43;;;21.10;92.60;;;;;;4974508;28;20046;-79
2022/08/05 12:01:05;;;;;;;1.85;0.50;;;21.00;93.00;;;;;;4974231;28;20053;-79
2022/08/05 12:03:50;;;;;;;1.63;0.32;;;21.00;93.70;;;;;;4975667;28;20050;-79
2022/08/05 12:06:19;;;;;;;3.10;0.60;;;21.10;95.00;;;;;;4975716;28;20050;-77
2022/08/05 12:08:56;;;;;;;2.95;0.60;;;21.00;95.40;;;;;;4974105;28;20035;-77
2022/08/05 12:11:23;;;;;;;1.23;0.40;;;21.00;96.00;;;;;;4974137;28;20066;-77
2022/08/05 12:13:59;;;;;;;2.10;0.80;;;20.90;96.00;;;;;;4974011;28;20126;-78
2022/08/05 12:16:27;;;;;;;2.08;0.88;;;20.80;96.60;;;;;;4975883;28;20038;-79
2022/08/05 12:18:54;;;;;;;1.42;0.40;;;20.90;96.30;;;;;;4973833;28;20122;-77
2022/08/05 12:21:29;;;;;;;2.17;0.50;;;20.80;96.00;;;;;;4975102;28;20045;-78
2022/08/05 12:24:02;;;;;;;;;;;20.70;96.60;;;;;;4976456;28;20074;-78
2022/08/05 12:26:35;;;;;;;4.68;1.27;;;20.60;98.80;;;;;;4973747;28;20004;-78
2022/08/05 12:29:02;;;;;;;2.22;0.75;;;20.70;99.30;;;;;;4974960;28;20042;-78
2022/08/05 12:31:31;;;;;;;4.32;1.40;;;20.60;99.90;;;;;;4973908;28;20047;-78
2022/08/05 12:33:57;;;;;;;3.42;1.13;;;20.50;99.90;;;;;;4975213;28;20053;-78
2022/08/05 12:36:23;;;;;;;1.85;0.43;;;20.70;99.90;;;;;;4973623;28;20411;-77
2022/08/05 12:38:49;;;;;;;2.88;0.88;;;20.80;99.90;;;;;;4973482;28;20097;-78
2022/08/05 12:41:15;;;;;;;1.00;0.47;;;20.90;99.90;;;;;;4974731;28;20046;-77
2022/08/05 12:44:10;;;;;;;2.50;0.52;;;20.90;99.90;;;;;;4973997;28;20050;-78
2022/08/05 12:46:38;;;;;;;2.03;0.45;;;21.20;99.90;;;;;;4973050;28;20463;-80
2022/08/05 12:49:13;;;;;;;3.92;1.15;;;21.10;99.50;;;;;;4973267;28;20514;-78
2022/08/05 12:51:51;;;;;;;1.13;0.40;;;21.10;98.70;;;;;;4957340;28;20495;-77
2022/08/05 12:54:28;;;;;;;2.20;0.45;;;21.00;98.50;;;;;;4974018;28;20045;-78
2022/08/05 12:57:02;;;;;;;1.70;0.40;;;20.80;98.80;;;;;;4974776;28;20368;-80
2022/08/05 12:59:32;;;;;;;2.50;0.40;;;20.70;98.90;;;;;;4973266;28;20050;-77
2022/08/05 13:02:02;;;;;;;0.98;0.32;;;20.60;99.40;;;;;;4973094;28;20051;-77
2022/08/05 13:04:30;;;;;;;2.00;0.40;;;20.60;99.90;;;;;;4974561;28;20081;-80
2022/08/05 13:07:02;;;;;;;3.03;0.50;;;20.50;99.60;;;;;;4973080;28;20055;-76
2022/08/05 13:09:28;;;;;;;2.83;0.50;;;20.50;99.80;;;;;;4973457;28;20085;-78
2022/08/05 13:12:22;;;;;;;2.50;0.70;;;20.50;99.60;;;;;;4974469;28;20039;-77
2022/08/05 13:14:59;;;;;;;2.65;0.40;;;20.60;99.90;;;;;;4972652;28;20112;-80
2022/08/05 13:17:29;;;;;;;1.05;0.38;;;20.50;99.30;;;;;;4974344;28;20521;-78
2022/08/05 13:20:05;;;;;;;1.13;0.40;;;20.60;99.20;;;;;;4973421;28;20035;-77
2022/08/05 13:22:40;;;;;;;2.58;0.50;;;20.60;98.50;;;;;;4973771;28;20383;-77
2022/08/05 13:25:17;;;;;;;3.17;0.70;;;20.50;99.30;;;;;;4973391;28;20074;-78
2022/08/05 13:27:47;;;;;;;2.53;0.40;;;20.40;99.80;;;;;;4973103;28;20050;-78
2022/08/05 13:30:15;;;;;;;1.85;0.50;;;20.50;99.90;;;;;;4972964;28;20046;-78
2022/08/05 13:32:41;;;;;;;2.90;0.30;;;20.50;99.60;;;;;;4972978;28;20034;-79
2022/08/05 13:35:08;;;;;;;1.80;0.38;;;20.50;99.90;;;;;;4974141;28;20110;-78
2022/08/05 13:37:35;;;;;;;1.90;0.30;;;20.60;98.90;;;;;;4973077;28;20047;-78
2022/08/05 13:40:01;;;;;;;2.25;0.60;;;20.60;98.10;;;;;;4973123;28;20073;-79
2022/08/05 13:42:27;;;;;;;1.40;0.30;;;20.50;98.30;;;;;;4974376;28;20047;-78
2022/08/05 13:44:56;;;;;;;1.92;0.43;;;20.60;99.00;;;;;;4956993;28;20053;-77
2022/08/05 13:47:23;;;;;;;4.18;0.90;;;20.70;99.50;;;;;;4972691;28;20133;-79
2022/08/05 13:49:49;;;;;;;1.23;0.38;;;20.70;98.90;;;;;;4973215;28;20395;-79
2022/08/05 13:52:21;;;;;;;1.80;0.50;;;20.60;98.50;;;;;;4972918;28;20474;-77
2022/08/05 13:54:47;;;;;;;2.25;0.50;;;20.60;99.00;;;;;;4972854;28;20142;-78
2022/08/05 13:57:13;;;;;;;3.47;0.50;;;20.60;99.80;;;;;;4956965;28;20086;-77
2022/08/05 13:59:39;;;;;;;2.95;0.68;;;20.60;99.90;;;;;;4972754;28;20495;-78
2022/08/05 14:02:07;;;;;;;3.50;0.80;;;20.60;99.90;;;;;;4973963;28;20438;-77
2022/08/05 14:07:26;;;;;;;7.43;1.08;;;20.50;99.90;;;;;;4975608;28;20046;-77
2022/08/05 14:09:52;;;;;;;3.60;0.77;;;20.50;99.90;;;;;;4976516;28;20410;-78
2022/08/05 14:12:19;;;;;;;7.07;1.23;;;20.50;99.90;;;;;;4976286;28;20062;-79
2022/08/05 14:14:45;;;;;;;3.08;0.63;;;20.50;99.90;;;;;;4976127;28;20042;-79
2022/08/05 14:17:10;;;;;;;4.07;0.70;;;20.60;99.90;;;;;;4976077;28;20046;-78
2022/08/05 14:19:36;;;;;;;3.22;0.50;;;20.80;99.90;;;;;;4976452;28;20059;-79
2022/08/05 14:22:02;;;;;;;3.45;0.60;;;20.90;99.90;;;;;;4976257;28;20407;-80
2022/08/05 14:24:28;;;;;;;2.28;0.60;;;21.10;99.90;;;;;;4977451;28;20046;-78
2022/08/05 14:26:54;;;;;;;3.63;0.50;;;21.20;99.90;;;;;;4975873;28;20047;-79
2022/08/05 14:29:19;;;;;;;3.67;0.50;;;21.50;99.90;;;;;;4959772;28;20031;-79
2022/08/05 14:31:45;;;;;;;4.47;0.50;;;21.60;99.90;;;;;;4975843;28;20122;-79
2022/08/05 14:34:10;;;;;;;2.97;0.70;;;21.40;99.90;;;;;;4976190;28;20423;-79
2022/08/05 14:36:36;;;;;;;2.47;0.50;;;21.30;99.90;;;;;;4977215;28;20043;-77
2022/08/05 14:39:04;;;;;;;2.42;0.68;;;21.10;99.90;;;;;;4975901;28;20189;-77
2022/08/05 14:41:30;;;;;;;5.63;1.00;;;21.00;99.90;;;;;;4975469;28;20489;-78
2022/08/05 14:43:56;;;;;;;3.15;0.68;;;21.00;99.90;;;;;;4976102;28;20141;-77
2022/08/05 14:46:23;;;;;;;3.13;0.50;;;20.90;99.90;;;;;;4975417;28;20054;-79
2022/08/05 14:48:49;;;;;;;3.28;1.05;;;21.00;99.90;;;;;;4959550;28;20047;-79
2022/08/05 14:51:15;;;;;;;2.03;0.30;;;21.10;99.90;;;;;;4975712;28;20037;-79
2022/08/05 14:53:40;;;;;;;2.05;0.70;;;21.20;99.90;;;;;;4959340;28;20451;-78
2022/08/05 14:56:06;;;;;;;1.60;0.40;;;21.10;99.90;;;;;;4976684;28;20122;-78
2022/08/05 14:58:32;;;;;;;2.97;0.45;;;21.10;99.40;;;;;;4975535;28;20049;-79
2022/08/05 15:00:57;;;;;;;3.20;0.50;;;21.10;99.20;;;;;;4976524;28;20425;-79
2022/08/05 15:03:23;;;;;;;2.17;0.50;;;21.00;98.90;;;;;;4975349;28;20054;-78
2022/08/05 15:05:49;;;;;;;0.98;0.40;;;20.90;98.40;;;;;;4976674;28;20043;-78
2022/08/05 15:08:14;;;;;;;2.78;0.40;;;20.70;98.00;;;;;;4975322;28;20046;-79
2022/08/05 15:10:42;;;;;;;3.70;0.50;;;20.50;97.90;;;;;;4976728;28;20035;-78
2022/08/05 15:13:08;;;;;;;3.97;0.68;;;20.30;97.60;;;;;;4975137;28;20101;-82
2022/08/05 15:15:33;;;;;;;1.88;0.50;;;20.30;97.90;;;;;;4975110;28;20117;-78
2022/08/05 15:17:59;;;;;;;2.60;0.40;;;20.20;97.70;;;;;;4974599;28;20464;-78
2022/08/05 15:20:25;;;;;;;1.85;0.40;;;20.10;98.40;;;;;;4974976;28;20050;-78
2022/08/05 15:22:51;;;;;;;1.90;0.30;;;20.20;98.60;;;;;;4974800;28;20089;-79
2022/08/05 15:25:17;;;;;;;3.33;0.90;;;20.20;98.70;;;;;;4974721;28;20043;-79
2022/08/05 15:27:43;;;;;;;2.80;0.47;;;20.20;99.00;;;;;;4958788;28;20047;-79
2022/08/05 15:30:09;;;;;;;3.30;0.70;;;20.20;99.30;;;;;;4975083;28;20043;-78
2022/08/05 15:32:36;;;;;;;2.45;0.50;;;20.10;98.90;;;;;;4958723;28;20050;-79
2022/08/05 15:35:02;;;;;;;3.20;0.70;;;20.10;99.40;;;;;;4975125;28;20047;-79
2022/08/05 15:37:27;;;;;;;1.25;0.40;;;20.10;99.90;;;;;;4975519;28;20079;-79
2022/08/05 15:39:55;;;;;;;2.40;0.50;;;20.10;99.90;;;;;;4974725;28;20086;-79
2022/08/05 15:42:23;;;;;;;1.80;0.55;;;20.30;99.90;;;;;;4958581;28;20046;-79
2022/08/05 15:44:48;;;;;;;2.25;0.60;;;20.50;99.90;;;;;;4975067;28;20050;-79
2022/08/05 15:47:14;;;;;;;3.15;0.43;;;20.70;99.90;;;;;;4973845;28;20094;-80
2022/08/05 15:49:40;;;;;;;2.30;0.50;;;20.60;98.40;;;;;;4973464;28;20125;-80
2022/08/05 15:52:06;;;;;;;1.65;0.50;;;20.80;98.10;;;;;;4973579;28;20057;-80
2022/08/05 15:54:31;;;;;;;1.42;0.57;;;20.80;97.80;;;;;;4973925;28;20092;-80
2022/08/05 15:56:57;;;;;;;2.47;0.52;;;20.90;97.80;;;;;;4973534;28;20053;-80